Time;durP1;ratioP1;P1;durP2;ratioP2;P2;SDS_P1;SDS_P2;PMS_P1;PMS_P2;Temp;Humidity;BMP_temperature;BMP_pressure;BME280_temperature;BME280_humidity;BME280_pressure;Samples;Min_cycle;Max_cycle;Signal;HPM_P1;HPM_P2
2023/09/14 04:01:03;;;;;;;4.80;2.70;;;20.00;80.80;;;;;;5841668;23;20782;-69
2023/09/14 04:03:30;;;;;;;3.40;2.40;;;20.00;80.70;;;;;;4919778;29;20532;-69
2023/09/14 04:05:57;;;;;;;3.23;2.93;;;19.90;80.90;;;;;;4919435;29;20893;-69
2023/09/14 04:08:24;;;;;;;2.77;2.37;;;19.90;81.00;;;;;;4919705;29;20864;-68
2023/09/14 04:10:51;;;;;;;3.07;2.77;;;20.00;80.80;;;;;;4919566;29;20544;-69
2023/09/14 04:15:46;;;;;;;3.57;2.93;;;19.90;80.70;;;;;;4940568;23;20496;-75
2023/09/14 04:18:14;;;;;;;3.23;2.93;;;19.90;80.90;;;;;;4919526;29;20445;-75
2023/09/14 04:20:41;;;;;;;3.30;3.00;;;19.80;80.90;;;;;;4919647;29;20500;-75
2023/09/14 04:23:07;;;;;;;3.00;2.70;;;19.80;80.90;;;;;;4919439;29;20441;-75
2023/09/14 04:25:34;;;;;;;3.17;2.87;;;19.80;80.90;;;;;;4919337;29;20467;-75
2023/09/14 04:28:01;;;;;;;3.60;2.90;;;19.80;80.80;;;;;;4919325;29;20448;-75
2023/09/14 04:30:27;;;;;;;2.90;2.60;;;19.80;80.80;;;;;;4919287;29;20463;-75
2023/09/14 04:32:54;;;;;;;4.00;3.60;;;19.80;80.70;;;;;;4919286;29;20445;-75
2023/09/14 04:35:22;;;;;;;3.67;3.37;;;19.80;80.70;;;;;;4918987;29;20560;-75
2023/09/14 04:37:49;;;;;;;3.40;3.10;;;19.80;80.70;;;;;;4918497;29;20448;-75
2023/09/14 04:40:15;;;;;;;3.27;2.70;;;19.70;80.80;;;;;;4918677;29;20448;-75
2023/09/14 04:42:42;;;;;;;4.00;3.40;;;19.70;80.70;;;;;;4919891;29;20453;-74
2023/09/14 04:45:09;;;;;;;3.60;3.30;;;19.70;80.90;;;;;;4918969;29;20461;-75
2023/09/14 04:47:36;;;;;;;3.70;3.40;;;19.70;80.80;;;;;;4918977;29;20456;-75
2023/09/14 04:50:03;;;;;;;3.17;2.87;;;19.60;81.10;;;;;;4918941;29;20444;-75
2023/09/14 04:52:31;;;;;;;3.47;3.17;;;19.60;81.10;;;;;;4918873;29;20457;-75
2023/09/14 04:54:58;;;;;;;3.43;3.13;;;19.60;81.00;;;;;;4918783;29;20501;-75
2023/09/14 04:57:25;;;;;;;3.60;3.03;;;19.60;81.00;;;;;;4918816;29;20499;-75
2023/09/14 04:59:51;;;;;;;2.50;2.30;;;19.60;80.80;;;;;;4918803;29;20456;-75
2023/09/14 05:02:18;;;;;;;3.43;3.13;;;19.60;80.90;;;;;;4918708;29;20456;-75
2023/09/14 05:04:45;;;;;;;3.33;3.03;;;19.60;81.00;;;;;;4918652;29;20483;-75
2023/09/14 05:07:11;;;;;;;3.20;2.90;;;19.60;81.10;;;;;;4918618;29;20445;-75
2023/09/14 05:09:39;;;;;;;3.13;2.83;;;19.60;81.10;;;;;;4918618;29;20452;-76
2023/09/14 05:12:06;;;;;;;3.27;2.97;;;19.60;80.90;;;;;;4918571;29;20453;-72
2023/09/14 05:14:33;;;;;;;3.57;2.70;;;19.60;81.20;;;;;;4918124;29;20483;-75
2023/09/14 05:17:00;;;;;;;3.23;2.93;;;19.60;81.30;;;;;;4918974;29;20488;-76
2023/09/14 05:19:27;;;;;;;3.27;2.67;;;19.60;81.50;;;;;;4919604;29;20449;-76
2023/09/14 05:21:54;;;;;;;3.13;2.83;;;19.60;81.40;;;;;;4919718;29;20461;-76
2023/09/14 05:24:20;;;;;;;3.30;3.00;;;19.60;81.40;;;;;;4920883;29;20468;-77
2023/09/14 05:26:49;;;;;;;3.33;3.03;;;19.70;81.40;;;;;;4920946;29;20472;-75
2023/09/14 05:29:15;;;;;;;3.57;3.27;;;19.70;81.60;;;;;;4921331;29;20491;-76
2023/09/14 05:31:42;;;;;;;3.90;3.50;;;19.80;81.90;;;;;;4920820;29;20805;-76
2023/09/14 05:34:09;;;;;;;3.37;3.07;;;19.80;81.80;;;;;;4920311;29;21049;-77
2023/09/14 05:36:36;;;;;;;4.13;3.73;;;19.90;81.60;;;;;;4922439;29;20488;-76
2023/09/14 05:39:03;;;;;;;3.93;3.50;;;19.90;81.30;;;;;;4924447;29;20456;-76
2023/09/14 05:41:30;;;;;;;3.20;2.90;;;20.10;81.10;;;;;;4924853;29;20456;-76
2023/09/14 05:43:58;;;;;;;4.00;3.37;;;20.40;80.50;;;;;;4924164;29;20824;-76
2023/09/14 05:46:25;;;;;;;3.40;3.10;;;20.80;79.50;;;;;;4923247;29;20938;-76
2023/09/14 05:48:51;;;;;;;3.60;3.30;;;21.20;78.20;;;;;;4922247;29;20796;-76
2023/09/14 05:51:18;;;;;;;4.20;3.30;;;21.60;76.90;;;;;;4920521;29;20868;-77
2023/09/14 05:53:45;;;;;;;4.10;3.17;;;22.10;75.00;;;;;;4921667;29;20468;-77
2023/09/14 05:56:12;;;;;;;3.67;3.37;;;22.50;73.70;;;;;;4921947;29;20480;-76
2023/09/14 05:58:38;;;;;;;4.00;3.70;;;22.90;72.40;;;;;;4921475;29;20460;-76
2023/09/14 06:01:06;;;;;;;2.70;2.40;;;23.40;71.10;;;;;;4921798;29;20452;-77
2023/09/14 06:03:33;;;;;;;3.20;2.90;;;23.80;70.00;;;;;;4921762;29;20460;-77
2023/09/14 06:06:00;;;;;;;3.83;3.50;;;24.30;68.60;;;;;;4922035;29;20445;-77
2023/09/14 06:08:26;;;;;;;3.70;3.37;;;24.70;67.40;;;;;;4921939;29;20464;-76
2023/09/14 06:10:53;;;;;;;3.40;3.10;;;25.00;66.60;;;;;;4921552;29;20445;-77
2023/09/14 06:13:20;;;;;;;3.03;2.70;;;25.00;66.60;;;;;;4921727;29;20877;-76
2023/09/14 06:15:47;;;;;;;4.10;3.60;;;25.30;66.50;;;;;;4922539;29;20586;-76
2023/09/14 06:18:15;;;;;;;3.33;3.03;;;25.60;65.80;;;;;;4922447;29;20508;-76
2023/09/14 06:20:41;;;;;;;3.60;3.30;;;25.90;65.20;;;;;;4922239;29;20571;-77
2023/09/14 06:23:08;;;;;;;3.70;3.37;;;26.00;64.50;;;;;;4922952;29;20457;-77
2023/09/14 06:25:35;;;;;;;3.50;3.20;;;25.90;63.60;;;;;;4921997;29;20479;-77
2023/09/14 06:28:01;;;;;;;3.83;3.53;;;25.60;64.10;;;;;;4919678;29;20455;-76
2023/09/14 06:30:28;;;;;;;5.03;4.00;;;25.20;65.00;;;;;;4919083;29;20893;-76
2023/09/14 06:32:55;;;;;;;3.97;3.60;;;24.80;65.60;;;;;;4918044;29;20448;-76
2023/09/14 06:35:23;;;;;;;3.93;3.63;;;24.40;66.70;;;;;;4918319;29;20986;-76
2023/09/14 06:37:49;;;;;;;3.53;3.23;;;24.00;67.50;;;;;;4918497;29;20858;-76
2023/09/14 06:40:16;;;;;;;3.73;3.40;;;23.60;68.50;;;;;;4917819;29;20866;-76
2023/09/14 06:42:43;;;;;;;4.00;3.60;;;23.00;70.00;;;;;;4918441;29;20488;-76
2023/09/14 06:45:10;;;;;;;4.47;4.07;;;22.60;71.10;;;;;;4918769;29;20477;-76
2023/09/14 06:47:37;;;;;;;4.33;3.93;;;22.30;72.20;;;;;;4918427;29;20954;-76
2023/09/14 06:50:04;;;;;;;4.07;3.67;;;22.10;72.40;;;;;;4918578;29;20444;-76
2023/09/14 06:52:34;;;;;;;3.60;3.30;;;21.90;72.90;;;;;;4918907;29;20461;-76
2023/09/14 06:55:01;;;;;;;3.90;3.57;;;21.70;73.30;;;;;;4918529;29;20469;-76
2023/09/14 06:57:28;;;;;;;3.90;3.53;;;21.60;74.00;;;;;;4918302;29;20523;-76
2023/09/14 06:59:54;;;;;;;4.40;4.00;;;21.40;74.20;;;;;;4918457;29;20462;-76
2023/09/14 07:02:21;;;;;;;4.00;3.60;;;21.30;75.00;;;;;;4920455;29;20467;-76
2023/09/14 07:04:48;;;;;;;4.57;4.17;;;21.20;74.90;;;;;;4921981;29;20500;-76
2023/09/14 07:07:16;;;;;;;3.83;3.50;;;21.10;75.30;;;;;;4921921;29;20866;-75
2023/09/14 07:09:44;;;;;;;4.40;3.60;;;20.90;75.30;;;;;;4922059;29;20455;-76
2023/09/14 07:12:10;;;;;;;3.90;3.50;;;20.70;76.70;;;;;;4921660;29;20834;-76
2023/09/14 07:14:37;;;;;;;4.00;3.60;;;20.70;77.00;;;;;;4922532;29;20524;-76
2023/09/14 07:17:04;;;;;;;4.00;3.70;;;20.70;77.00;;;;;;4922271;29;20492;-76
2023/09/14 07:19:31;;;;;;;5.33;4.10;;;20.70;77.00;;;;;;4923750;29;20449;-76
2023/09/14 07:21:58;;;;;;;4.60;4.20;;;20.70;77.20;;;;;;4922466;29;20445;-76
2023/09/14 07:24:26;;;;;;;5.37;3.93;;;20.70;77.00;;;;;;4922891;29;20472;-76
2023/09/14 07:26:54;;;;;;;4.73;4.33;;;20.70;77.10;;;;;;4921915;29;20448;-76
2023/09/14 07:29:21;;;;;;;5.00;4.47;;;20.70;77.00;;;;;;4924126;29;20463;-76
2023/09/14 07:31:50;;;;;;;4.50;4.10;;;20.70;76.90;;;;;;4922071;29;20551;-76
2023/09/14 07:34:16;;;;;;;4.50;4.10;;;20.70;77.10;;;;;;4920953;29;20474;-76
2023/09/14 07:36:43;;;;;;;4.03;3.73;;;20.70;77.30;;;;;;4920933;29;20489;-76
2023/09/14 07:39:10;;;;;;;4.43;4.03;;;20.70;77.20;;;;;;4921037;29;20452;-77
2023/09/14 07:41:37;;;;;;;3.87;3.47;;;20.70;76.90;;;;;;4920956;29;20536;-76
2023/09/14 07:44:05;;;;;;;3.93;3.57;;;20.50;76.40;;;;;;4920535;29;21009;-77
2023/09/14 07:46:32;;;;;;;4.17;3.77;;;20.20;77.80;;;;;;4920399;29;20444;-76
2023/09/14 07:48:59;;;;;;;4.73;4.07;;;20.20;77.30;;;;;;4920226;29;20535;-76
2023/09/14 07:51:26;;;;;;;3.90;3.60;;;20.20;77.80;;;;;;4919982;29;20957;-77
2023/09/14 07:53:55;;;;;;;3.93;3.57;;;20.20;77.60;;;;;;4919806;29;20996;-77
2023/09/14 07:56:22;;;;;;;4.10;3.70;;;20.10;77.50;;;;;;4919816;29;20476;-77
2023/09/14 07:58:49;;;;;;;4.63;4.10;;;19.90;78.80;;;;;;4920839;29;20456;-77
2023/09/14 08:01:17;;;;;;;3.97;3.67;;;19.70;78.60;;;;;;4921075;29;20444;-77
2023/09/14 08:03:44;;;;;;;4.30;3.93;;;19.70;79.50;;;;;;4920615;29;20472;-77
2023/09/14 08:06:10;;;;;;;4.40;4.00;;;19.90;79.60;;;;;;4920949;29;20875;-77
2023/09/14 08:08:37;;;;;;;3.93;3.53;;;19.90;78.70;;;;;;4920771;29;20448;-77
2023/09/14 08:11:05;;;;;;;4.50;3.80;;;20.00;78.30;;;;;;4920734;29;20459;-77
2023/09/14 08:13:31;;;;;;;4.33;3.93;;;19.70;78.80;;;;;;4920405;29;20512;-77
2023/09/14 08:16:03;;;;;;;4.00;3.60;;;19.80;79.30;;;;;;4920661;29;20425;-78
2023/09/14 08:18:31;;;;;;;4.50;4.10;;;19.90;78.80;;;;;;4920573;29;20445;-78
2023/09/14 08:20:58;;;;;;;3.70;3.40;;;19.90;79.10;;;;;;4920465;29;20817;-77
2023/09/14 08:23:25;;;;;;;3.77;3.47;;;20.20;78.50;;;;;;4920372;29;20448;-78
2023/09/14 08:25:52;;;;;;;3.50;3.20;;;20.40;77.60;;;;;;4920403;29;20449;-77
2023/09/14 08:28:20;;;;;;;3.63;3.33;;;20.10;77.90;;;;;;4920423;29;20452;-77
2023/09/14 08:30:48;;;;;;;3.83;3.43;;;20.30;78.10;;;;;;4920575;29;20638;-78
2023/09/14 08:33:16;;;;;;;3.80;3.50;;;20.50;77.60;;;;;;4920777;29;20456;-77
2023/09/14 08:35:44;;;;;;;4.63;3.83;;;20.60;77.40;;;;;;4919931;29;20500;-77
2023/09/14 08:38:11;;;;;;;4.40;4.00;;;20.60;77.20;;;;;;4919488;29;20491;-77
2023/09/14 08:40:41;;;;;;;4.23;3.33;;;20.60;76.60;;;;;;4919134;29;20448;-77
2023/09/14 08:43:11;;;;;;;3.57;3.27;;;20.70;76.50;;;;;;4919937;29;20453;-77
2023/09/14 08:45:38;;;;;;;3.43;3.13;;;20.50;77.10;;;;;;4919782;29;20500;-77
2023/09/14 08:48:06;;;;;;;7.07;3.23;;;20.70;77.10;;;;;;4919779;29;20444;-77
2023/09/14 08:50:34;;;;;;;4.17;3.83;;;20.80;77.20;;;;;;4919427;29;20480;-77
2023/09/14 08:53:02;;;;;;;3.50;3.20;;;21.00;76.20;;;;;;4919078;29;20942;-77
2023/09/14 08:55:32;;;;;;;3.80;3.40;;;21.20;75.80;;;;;;4919117;29;20473;-77
2023/09/14 08:57:59;;;;;;;3.53;3.23;;;21.30;74.50;;;;;;4919244;29;20496;-77
2023/09/14 09:00:28;;;;;;;4.00;3.60;;;21.40;74.40;;;;;;4919065;29;20970;-77
2023/09/14 09:02:56;;;;;;;3.80;3.40;;;21.50;74.10;;;;;;4919348;29;20452;-77
2023/09/14 09:05:24;;;;;;;3.80;3.50;;;21.60;73.80;;;;;;4919033;29;20477;-77
2023/09/14 09:07:54;;;;;;;3.90;3.50;;;21.70;73.60;;;;;;4919443;29;20449;-77
2023/09/14 09:10:23;;;;;;;3.07;2.77;;;21.80;73.30;;;;;;4919540;29;20834;-77
2023/09/14 09:12:51;;;;;;;3.37;3.00;;;21.90;72.80;;;;;;4919205;29;20452;-77
2023/09/14 09:15:18;;;;;;;3.50;3.20;;;21.90;73.60;;;;;;4919097;29;20483;-77
2023/09/14 09:17:45;;;;;;;3.40;3.10;;;22.00;73.60;;;;;;4919164;29;20491;-77
2023/09/14 09:20:19;;;;;;;3.40;3.03;;;21.90;73.60;;;;;;4919454;29;20449;-77
2023/09/14 09:22:46;;;;;;;2.87;2.57;;;22.00;73.10;;;;;;4919224;29;20437;-77
2023/09/14 09:25:14;;;;;;;3.23;2.93;;;22.00;73.60;;;;;;4918275;29;21013;-77
2023/09/14 09:27:42;;;;;;;3.40;3.10;;;22.10;73.40;;;;;;4919770;29;20456;-77
2023/09/14 09:30:09;;;;;;;2.93;2.63;;;22.20;73.00;;;;;;4918837;29;20461;-77
2023/09/14 09:32:38;;;;;;;3.40;3.10;;;22.30;73.10;;;;;;4918807;29;20449;-77
2023/09/14 09:35:22;;;;;;;3.10;2.80;;;21.90;72.70;;;;;;4919175;29;20591;-77
2023/09/14 09:37:50;;;;;;;3.37;2.57;;;22.00;73.30;;;;;;4918405;29;20498;-77
2023/09/14 09:40:18;;;;;;;2.90;2.30;;;22.10;72.90;;;;;;4918471;29;20449;-77
2023/09/14 09:42:47;;;;;;;2.63;2.43;;;22.30;72.40;;;;;;4918039;29;20954;-77
2023/09/14 09:45:14;;;;;;;2.67;2.40;;;22.30;72.80;;;;;;4918065;29;20504;-76
2023/09/14 09:47:42;;;;;;;3.30;2.57;;;22.60;71.80;;;;;;4918020;29;20444;-77
2023/09/14 09:50:10;;;;;;;2.80;2.50;;;22.50;71.00;;;;;;4917946;29;20449;-76
2023/09/14 09:52:38;;;;;;;2.70;2.13;;;22.60;69.80;;;;;;4917996;29;20449;-77
2023/09/14 09:55:06;;;;;;;2.27;2.07;;;22.50;71.00;;;;;;4918043;29;20476;-75
2023/09/14 09:57:36;;;;;;;3.10;2.60;;;22.50;70.70;;;;;;4918205;29;20476;-77
2023/09/14 10:00:12;;;;;;;2.60;2.30;;;22.40;70.10;;;;;;4918376;29;20437;-77
2023/09/14 10:02:40;;;;;;;2.20;2.00;;;22.40;71.10;;;;;;4917588;29;20893;-76
2023/09/14 10:05:08;;;;;;;3.20;2.20;;;22.60;70.40;;;;;;4917639;29;20465;-77
2023/09/14 10:07:37;;;;;;;2.43;2.10;;;22.70;69.80;;;;;;4917644;29;20942;-76
2023/09/14 10:10:05;;;;;;;3.63;2.63;;;22.80;69.30;;;;;;4918630;29;20456;-77
2023/09/14 10:12:32;;;;;;;4.53;2.40;;;22.80;69.00;;;;;;4917957;29;20445;-77
2023/09/14 10:15:00;;;;;;;2.80;2.50;;;22.90;69.40;;;;;;4974633;23;20866;-76
2023/09/14 10:17:30;;;;;;;3.50;2.80;;;22.80;70.50;;;;;;4917477;29;20586;-71
2023/09/14 10:19:58;;;;;;;3.33;2.43;;;22.80;72.40;;;;;;4917440;29;20521;-71
2023/09/14 10:22:27;;;;;;;3.40;2.80;;;22.80;71.40;;;;;;4917069;29;21006;-71
2023/09/14 10:24:55;;;;;;;3.37;3.07;;;22.80;72.70;;;;;;4917219;29;20465;-71
2023/09/14 10:27:22;;;;;;;3.50;2.50;;;23.10;70.60;;;;;;4917279;29;20452;-70
2023/09/14 10:29:50;;;;;;;2.83;2.53;;;23.20;71.20;;;;;;4917304;29;20475;-71
2023/09/14 10:32:22;;;;;;;3.30;3.00;;;23.50;70.30;;;;;;4917082;29;20448;-71
2023/09/14 10:34:51;;;;;;;3.47;3.17;;;23.60;69.90;;;;;;4917171;29;20472;-71
2023/09/14 10:37:20;;;;;;;3.13;2.83;;;23.20;70.40;;;;;;4916206;29;20493;-71
2023/09/14 10:39:47;;;;;;;3.80;3.50;;;22.70;71.30;;;;;;4916843;29;20882;-70
2023/09/14 10:42:13;;;;;;;2.90;2.57;;;22.70;72.00;;;;;;4917167;29;20453;-71
2023/09/14 10:44:41;;;;;;;2.70;2.50;;;22.80;73.20;;;;;;4917024;29;20464;-71
2023/09/14 10:47:09;;;;;;;3.00;2.70;;;22.90;71.70;;;;;;4917059;29;20474;-72
2023/09/14 10:49:38;;;;;;;2.90;2.67;;;22.90;72.00;;;;;;4917043;29;20452;-71
2023/09/14 10:52:07;;;;;;;3.63;2.93;;;23.00;70.90;;;;;;4916978;29;20552;-70
2023/09/14 10:54:34;;;;;;;3.37;3.07;;;23.00;70.40;;;;;;4916938;29;20479;-71
2023/09/14 10:57:11;;;;;;;4.80;3.40;;;22.70;72.00;;;;;;4916892;29;20487;-71
2023/09/14 10:59:48;;;;;;;3.00;2.70;;;22.70;72.00;;;;;;4916996;29;20452;-70
2023/09/14 11:02:49;;;;;;;2.70;2.23;;;22.60;72.60;;;;;;4916863;29;20543;-71
2023/09/14 11:05:17;;;;;;;4.67;2.93;;;22.90;71.80;;;;;;4916960;29;20499;-71
2023/09/14 11:07:47;;;;;;;2.93;2.63;;;22.90;71.20;;;;;;4916840;29;20437;-71
2023/09/14 11:10:16;;;;;;;3.73;2.60;;;23.10;71.30;;;;;;4916707;29;20491;-71
2023/09/14 11:12:44;;;;;;;2.63;2.43;;;23.40;69.90;;;;;;4916484;29;20949;-71
2023/09/14 11:15:12;;;;;;;3.10;2.70;;;23.20;69.70;;;;;;4916439;29;20504;-71
2023/09/14 11:17:42;;;;;;;3.03;2.10;;;23.20;70.20;;;;;;4916394;29;20844;-70
2023/09/14 11:20:39;;;;;;;4.30;2.03;;;23.40;69.70;;;;;;4916461;29;20985;-71
2023/09/14 11:23:09;;;;;;;4.40;2.90;;;23.40;69.00;;;;;;4916762;29;20441;-71
2023/09/14 11:25:37;;;;;;;2.93;2.50;;;23.50;68.90;;;;;;4916608;29;20468;-70
2023/09/14 11:28:05;;;;;;;3.30;2.73;;;23.80;69.00;;;;;;4916654;29;20449;-71
2023/09/14 11:30:32;;;;;;;2.83;2.50;;;24.10;67.20;;;;;;4916710;29;20500;-71
2023/09/14 11:33:02;;;;;;;3.23;2.73;;;23.70;68.20;;;;;;4916692;29;20481;-71
2023/09/14 11:35:37;;;;;;;3.30;2.77;;;23.50;68.40;;;;;;4916527;29;20500;-71
2023/09/14 11:38:07;;;;;;;3.73;2.30;;;23.50;68.40;;;;;;4916477;29;20480;-70
2023/09/14 11:40:35;;;;;;;2.90;2.50;;;23.30;67.60;;;;;;4916272;29;20496;-71
2023/09/14 11:43:20;;;;;;;3.03;2.23;;;23.40;68.90;;;;;;4916565;29;20453;-71
2023/09/14 11:45:48;;;;;;;2.93;2.57;;;23.80;68.40;;;;;;4916490;29;20473;-71
2023/09/14 11:48:15;;;;;;;2.50;2.30;;;24.00;65.70;;;;;;4917756;29;20448;-70
2023/09/14 11:50:45;;;;;;;2.53;2.17;;;23.70;66.50;;;;;;4920040;29;20472;-69
2023/09/14 11:53:17;;;;;;;2.10;1.60;;;23.60;66.80;;;;;;4920026;29;20938;-70
2023/09/14 11:55:46;;;;;;;2.63;1.97;;;23.60;67.50;;;;;;4919603;29;21037;-71
2023/09/14 11:58:13;;;;;;;2.50;2.10;;;24.10;67.90;;;;;;4919847;29;20481;-71
2023/09/14 12:00:42;;;;;;;2.50;1.77;;;24.50;65.90;;;;;;4919905;29;20468;-71
2023/09/14 12:03:09;;;;;;;2.27;1.83;;;25.00;63.00;;;;;;4919852;29;20440;-71
2023/09/14 12:05:37;;;;;;;2.20;1.90;;;25.30;62.20;;;;;;4919766;29;20468;-71
2023/09/14 12:08:13;;;;;;;2.70;2.00;;;25.70;62.00;;;;;;4919723;29;20466;-71
2023/09/14 12:10:40;;;;;;;2.20;1.90;;;25.80;62.10;;;;;;4919705;29;20439;-71
2023/09/14 12:13:15;;;;;;;3.13;1.63;;;25.60;62.50;;;;;;4919644;29;20440;-72
2023/09/14 12:15:43;;;;;;;2.93;1.97;;;25.70;62.90;;;;;;4919190;29;20502;-70
2023/09/14 12:18:11;;;;;;;2.80;1.80;;;25.70;61.70;;;;;;4919513;29;20539;-71
2023/09/14 12:20:40;;;;;;;2.80;2.10;;;25.70;61.50;;;;;;4919518;29;20484;-71
2023/09/14 12:23:09;;;;;;;2.20;1.90;;;25.70;60.80;;;;;;4919500;29;20476;-71
2023/09/14 12:25:37;;;;;;;2.80;2.00;;;25.70;61.10;;;;;;4919304;29;20480;-71
2023/09/14 12:28:05;;;;;;;2.53;1.93;;;25.40;61.80;;;;;;4919335;29;20452;-71
2023/09/14 12:30:33;;;;;;;2.30;1.90;;;25.30;62.10;;;;;;4919334;29;20456;-71
2023/09/14 12:33:01;;;;;;;2.30;2.03;;;25.40;61.60;;;;;;4919248;29;20449;-71
2023/09/14 12:35:29;;;;;;;2.00;1.80;;;25.30;61.70;;;;;;4919327;29;20532;-71
2023/09/14 12:38:02;;;;;;;2.87;2.10;;;25.40;62.20;;;;;;4918753;29;20951;-71
2023/09/14 12:40:32;;;;;;;2.97;2.10;;;25.20;62.80;;;;;;4919119;29;20457;-71
2023/09/14 12:43:01;;;;;;;3.03;2.10;;;25.40;62.20;;;;;;4919082;29;20815;-71
2023/09/14 12:45:28;;;;;;;2.43;2.03;;;25.70;61.40;;;;;;4918919;29;20468;-72
2023/09/14 12:47:56;;;;;;;2.77;1.77;;;25.80;61.20;;;;;;4919063;29;20452;-71
2023/09/14 12:50:27;;;;;;;1.90;1.33;;;25.80;60.30;;;;;;4918978;29;20456;-71
2023/09/14 12:52:54;;;;;;;2.00;1.50;;;25.70;60.90;;;;;;4919012;29;20492;-70
2023/09/14 12:55:22;;;;;;;2.40;1.43;;;26.00;59.80;;;;;;4918827;29;20524;-71
2023/09/14 12:57:51;;;;;;;2.30;1.60;;;26.30;59.90;;;;;;4918827;29;20485;-71
2023/09/14 13:00:18;;;;;;;2.17;1.47;;;26.60;57.80;;;;;;4917575;29;20448;-71
2023/09/14 13:02:47;;;;;;;2.13;1.50;;;26.80;58.10;;;;;;4918773;29;20485;-71
2023/09/14 13:05:16;;;;;;;1.90;1.30;;;26.60;58.70;;;;;;4918664;29;20838;-72
2023/09/14 13:07:47;;;;;;;2.10;1.63;;;26.90;58.70;;;;;;4918414;29;20949;-72
2023/09/14 13:10:18;;;;;;;2.70;1.73;;;27.20;58.00;;;;;;4919217;29;20429;-71
2023/09/14 13:12:51;;;;;;;2.93;1.60;;;27.40;56.70;;;;;;4918560;29;20440;-72
2023/09/14 13:15:23;;;;;;;4.10;2.30;;;27.20;56.70;;;;;;4918174;29;20492;-71
2023/09/14 13:17:51;;;;;;;2.30;1.80;;;27.10;57.00;;;;;;4918447;29;20484;-71
2023/09/14 13:20:19;;;;;;;2.17;1.27;;;26.80;57.30;;;;;;4918119;29;20448;-72
2023/09/14 13:22:46;;;;;;;2.70;1.50;;;26.50;57.80;;;;;;4918486;29;20512;-72
2023/09/14 13:25:13;;;;;;;1.70;1.33;;;26.70;57.20;;;;;;4918279;29;20468;-71
2023/09/14 13:27:40;;;;;;;3.70;1.60;;;27.00;57.30;;;;;;4918261;29;20492;-72
2023/09/14 13:30:10;;;;;;;2.50;1.30;;;27.20;56.30;;;;;;4917981;29;21017;-72
2023/09/14 13:32:39;;;;;;;2.57;1.50;;;27.10;56.50;;;;;;4918141;29;20463;-72
2023/09/14 13:35:07;;;;;;;2.23;1.30;;;27.20;57.00;;;;;;4918100;29;20500;-72
2023/09/14 13:37:35;;;;;;;1.93;1.40;;;27.40;56.70;;;;;;4917749;29;20900;-72
2023/09/14 13:40:08;;;;;;;2.33;1.40;;;27.70;54.80;;;;;;4917775;29;21009;-72
2023/09/14 13:42:37;;;;;;;2.40;1.53;;;27.40;55.50;;;;;;4918033;29;20432;-72
2023/09/14 13:45:04;;;;;;;1.60;1.00;;;27.60;56.00;;;;;;4917855;29;20486;-72
2023/09/14 13:47:31;;;;;;;2.23;1.20;;;27.70;53.90;;;;;;4917941;29;20495;-72
2023/09/14 13:49:57;;;;;;;2.40;1.60;;;28.00;52.30;;;;;;4917870;29;20570;-72
2023/09/14 13:52:24;;;;;;;3.00;1.60;;;28.20;53.80;;;;;;4917982;29;20463;-72
2023/09/14 13:54:52;;;;;;;2.40;1.70;;;28.50;54.10;;;;;;4917750;29;20254;-72
2023/09/14 13:57:19;;;;;;;2.70;1.60;;;28.50;54.10;;;;;;4917767;29;20452;-72
2023/09/14 13:59:49;;;;;;;2.30;1.80;;;28.40;53.80;;;;;;4917631;29;20579;-71
2023/09/14 14:02:15;;;;;;;2.10;1.40;;;28.00;54.50;;;;;;4917663;29;20841;-71
2023/09/14 14:04:42;;;;;;;2.43;1.50;;;27.90;53.70;;;;;;4917265;29;20830;-71
2023/09/14 14:07:10;;;;;;;1.73;1.00;;;27.90;53.80;;;;;;4917565;29;20476;-72
2023/09/14 14:09:37;;;;;;;1.90;1.33;;;28.50;51.90;;;;;;4917492;29;20449;-72
2023/09/14 14:12:06;;;;;;;1.80;1.30;;;28.80;51.50;;;;;;4917050;29;20944;-71
2023/09/14 14:14:33;;;;;;;1.50;0.90;;;28.60;51.10;;;;;;4917191;29;20484;-72
2023/09/14 14:17:00;;;;;;;2.20;1.50;;;28.10;52.60;;;;;;4917382;29;20479;-71
2023/09/14 14:19:27;;;;;;;2.47;1.20;;;27.80;53.50;;;;;;4916986;29;20539;-72
2023/09/14 14:21:54;;;;;;;1.70;1.30;;;27.40;53.90;;;;;;4917342;29;20444;-72
2023/09/14 14:24:21;;;;;;;2.10;1.30;;;27.20;54.60;;;;;;4917241;29;20472;-71
2023/09/14 14:26:50;;;;;;;1.90;1.30;;;26.70;55.40;;;;;;4916940;29;20475;-71
2023/09/14 14:29:19;;;;;;;1.70;1.20;;;26.50;56.20;;;;;;4917171;29;20484;-72
2023/09/14 14:31:46;;;;;;;2.90;1.67;;;26.60;56.00;;;;;;4917175;29;20467;-72
2023/09/14 14:34:14;;;;;;;1.50;0.90;;;26.40;55.90;;;;;;4917134;29;20500;-71
2023/09/14 14:36:42;;;;;;;2.10;1.53;;;26.60;55.90;;;;;;4917127;29;20453;-72
2023/09/14 14:39:09;;;;;;;1.80;1.30;;;26.30;56.10;;;;;;4917018;29;20485;-71
2023/09/14 14:41:35;;;;;;;2.30;1.03;;;26.00;56.60;;;;;;4917105;29;20662;-71
2023/09/14 14:44:02;;;;;;;1.80;1.03;;;25.70;57.30;;;;;;4917018;29;20449;-72
2023/09/14 14:46:30;;;;;;;2.77;1.30;;;25.40;58.10;;;;;;4917035;29;20483;-71
2023/09/14 14:48:57;;;;;;;1.80;1.10;;;25.30;59.10;;;;;;4916989;29;20437;-72
2023/09/14 14:51:24;;;;;;;2.30;1.17;;;25.40;57.00;;;;;;4917333;29;20531;-71
2023/09/14 14:53:50;;;;;;;1.70;1.13;;;25.40;57.30;;;;;;4916914;29;20452;-71
2023/09/14 14:56:17;;;;;;;2.00;1.10;;;25.20;57.80;;;;;;4916945;29;20531;-72
2023/09/14 14:58:44;;;;;;;1.90;1.00;;;25.70;56.60;;;;;;4916852;29;20491;-72
2023/09/14 15:01:11;;;;;;;1.60;0.90;;;26.10;56.50;;;;;;4916880;29;20445;-71
2023/09/14 15:03:39;;;;;;;1.73;1.07;;;26.20;55.30;;;;;;4916862;29;20449;-71
2023/09/14 15:06:07;;;;;;;2.30;1.10;;;26.10;56.00;;;;;;4916760;29;20469;-71
2023/09/14 15:08:34;;;;;;;2.57;1.17;;;25.80;56.50;;;;;;4916720;29;20448;-72
2023/09/14 15:11:01;;;;;;;1.50;0.90;;;25.70;57.00;;;;;;4916469;29;20945;-71
2023/09/14 15:13:27;;;;;;;2.27;1.30;;;25.70;57.80;;;;;;4916493;29;20941;-71
2023/09/14 15:15:55;;;;;;;1.70;1.00;;;26.00;56.20;;;;;;4916404;29;20867;-72
2023/09/14 15:18:22;;;;;;;1.90;1.23;;;26.90;55.30;;;;;;4916664;29;20492;-71
2023/09/14 15:20:50;;;;;;;2.43;1.20;;;27.70;53.50;;;;;;4916735;29;20562;-72
2023/09/14 15:23:16;;;;;;;1.70;1.07;;;27.90;52.50;;;;;;4918412;29;20448;-72
2023/09/14 15:25:43;;;;;;;2.67;1.47;;;27.70;53.00;;;;;;4920441;29;20469;-72
2023/09/14 15:28:10;;;;;;;1.90;1.13;;;27.30;54.70;;;;;;4920453;29;20444;-70
2023/09/14 15:30:36;;;;;;;2.83;1.17;;;26.90;55.40;;;;;;4920348;29;20456;-71
2023/09/14 15:33:03;;;;;;;2.00;1.33;;;26.80;55.30;;;;;;4920415;29;20503;-72
2023/09/14 15:35:30;;;;;;;2.33;1.57;;;26.50;56.10;;;;;;4920231;29;20512;-71
2023/09/14 15:37:58;;;;;;;1.77;1.23;;;26.30;56.60;;;;;;4920268;29;20453;-71
2023/09/14 15:40:25;;;;;;;2.00;1.70;;;26.20;57.40;;;;;;4920147;29;20555;-72
2023/09/14 15:42:53;;;;;;;1.90;1.30;;;25.80;57.60;;;;;;4920184;29;20476;-71
2023/09/14 15:45:19;;;;;;;3.87;1.50;;;25.80;58.20;;;;;;4919731;29;21013;-72
2023/09/14 15:47:46;;;;;;;2.40;1.30;;;25.70;58.60;;;;;;4920120;29;20452;-72
2023/09/14 15:50:13;;;;;;;2.20;1.20;;;25.70;59.00;;;;;;4920045;29;20449;-70
2023/09/14 15:52:40;;;;;;;1.83;1.23;;;25.60;58.60;;;;;;4920030;29;20472;-71
2023/09/14 15:55:09;;;;;;;3.10;1.40;;;25.40;58.60;;;;;;4919890;29;20487;-72
2023/09/14 15:57:36;;;;;;;2.63;1.50;;;24.90;58.90;;;;;;4919928;29;20448;-71
2023/09/14 16:00:03;;;;;;;2.10;1.33;;;24.50;60.20;;;;;;4919840;29;20864;-72
2023/09/14 16:02:30;;;;;;;2.87;1.37;;;24.50;59.90;;;;;;4919844;29;20543;-72
2023/09/14 16:04:57;;;;;;;1.90;1.13;;;24.40;60.20;;;;;;4919683;29;20495;-71
2023/09/14 16:07:24;;;;;;;2.00;1.30;;;24.30;60.70;;;;;;4919735;29;20452;-71
2023/09/14 16:09:50;;;;;;;2.10;1.30;;;24.10;61.30;;;;;;4919677;29;20453;-71
2023/09/14 16:12:18;;;;;;;1.87;1.23;;;24.20;60.60;;;;;;4919634;29;20459;-71
2023/09/14 16:14:45;;;;;;;1.97;1.37;;;24.30;60.70;;;;;;4919966;29;20492;-71
2023/09/14 16:17:11;;;;;;;2.50;1.57;;;24.40;60.60;;;;;;4919584;29;20456;-71
2023/09/14 16:19:38;;;;;;;3.10;1.30;;;24.30;60.60;;;;;;4919454;29;20477;-71
2023/09/14 16:22:05;;;;;;;2.00;1.37;;;24.30;61.10;;;;;;4919480;29;20508;-71
2023/09/14 16:24:32;;;;;;;2.93;1.50;;;24.30;61.00;;;;;;4919359;29;20472;-71
2023/09/14 16:26:59;;;;;;;2.10;1.40;;;24.30;61.20;;;;;;4919366;29;20448;-71
2023/09/14 16:29:27;;;;;;;2.00;1.40;;;24.20;61.40;;;;;;4919331;29;20813;-71
2023/09/14 16:31:53;;;;;;;2.10;1.43;;;24.00;62.20;;;;;;4919294;29;20821;-72
2023/09/14 16:34:20;;;;;;;2.53;1.60;;;24.10;62.10;;;;;;4919145;29;20465;-71
2023/09/14 16:36:47;;;;;;;2.10;1.90;;;23.90;62.80;;;;;;4919234;29;20457;-70
2023/09/14 16:39:13;;;;;;;2.50;1.60;;;23.90;62.70;;;;;;4919105;29;20481;-71
2023/09/14 16:41:41;;;;;;;2.40;1.27;;;24.00;62.50;;;;;;4919140;29;20460;-71
2023/09/14 16:44:08;;;;;;;1.80;1.20;;;24.00;62.70;;;;;;4918860;29;20485;-71
2023/09/14 16:46:37;;;;;;;2.50;1.40;;;23.90;62.20;;;;;;4918709;29;20456;-71
2023/09/14 16:49:21;;;;;;;2.43;1.40;;;23.80;62.80;;;;;;4919629;29;20548;-72
2023/09/14 16:51:50;;;;;;;2.23;1.50;;;23.80;62.10;;;;;;4918923;29;20448;-72
2023/09/14 16:54:16;;;;;;;2.20;1.20;;;23.80;62.30;;;;;;4919497;29;20484;-72